Terminal Aerodrome Forecast
Issued by NWS

Home | Current Version | Previous Version | Text Only | Print | Product List | Glossary On
Versions: 1 2 3 4 5 6 7 8 9 10 11 12 13 14 15
000
FTPA31 PHFO 202343
TAFHLI
TAF
PHLI 202343Z 2100/2124 07013KT 6SM -SHRA BR BKN020
      TEMPO 2100/2104 4SM SHRA BR BKN012
     FM212000 06012KT P6SM -SHRA SCT020 BKN040=

USA.gov is the U.S. government's official web portal to all federal, state and local government web resources and services.